createdAt,value
2024-05-09T00:00:48.573Z,95601.75
2024-05-09T00:03:21.076Z,95597.97
2024-05-09T00:05:50.964Z,95603.78
2024-05-09T00:08:20.887Z,95602.97
2024-05-09T00:10:50.889Z,95602.63
2024-05-09T00:13:20.774Z,95608.34
2024-05-09T00:15:50.492Z,95612.28
2024-05-09T00:18:22.976Z,95608.59
2024-05-09T00:20:52.918Z,95613.16
2024-05-09T00:23:22.744Z,95619.72
2024-05-09T00:25:52.559Z,95611.28
2024-05-09T00:28:22.315Z,95600.63
2024-05-09T00:30:52.040Z,95609.41
2024-05-09T00:33:24.712Z,95606.06
2024-05-09T00:35:54.544Z,95604.47
2024-05-09T00:38:24.305Z,95601.53
2024-05-09T00:40:54.046Z,95605.00
2024-05-09T00:43:23.767Z,95602.84
2024-05-09T00:45:55.008Z,95599.56
2024-05-09T00:48:29.677Z,95599.13
2024-05-09T00:51:00.542Z,95601.34
2024-05-09T00:53:31.258Z,95609.59
2024-05-09T00:56:01.706Z,95604.47
2024-05-09T00:58:32.410Z,95614.63
2024-05-09T01:01:03.799Z,95602.66
2024-05-09T01:03:36.469Z,95603.03
2024-05-09T01:06:06.470Z,95600.50
2024-05-09T01:08:36.497Z,95598.59
2024-05-09T01:11:06.470Z,95608.44
2024-05-09T01:13:36.319Z,95619.97
2024-05-09T01:16:06.179Z,95606.75
2024-05-09T01:18:38.684Z,95614.00
2024-05-09T01:21:10.219Z,95603.53
2024-05-09T01:23:42.758Z,95608.63
2024-05-09T01:26:12.620Z,95611.09
2024-05-09T01:28:42.485Z,95602.03
2024-05-09T01:31:15.830Z,95609.59
2024-05-09T01:33:46.262Z,95609.59
2024-05-09T01:36:16.179Z,95609.59
2024-05-09T01:38:48.522Z,95601.16
2024-05-09T01:41:18.304Z,95601.59
2024-05-09T01:43:48.108Z,95607.25
2024-05-09T01:46:19.462Z,95603.91
2024-05-09T01:48:49.666Z,95608.53
2024-05-09T01:51:19.706Z,95615.38
2024-05-09T01:53:52.125Z,95614.41
2024-05-09T01:56:21.904Z,95608.81
2024-05-09T01:58:51.677Z,95612.66
2024-05-09T02:01:21.515Z,95606.66
2024-05-09T02:03:51.453Z,95609.34
2024-05-09T02:06:21.352Z,95608.44
2024-05-09T02:08:53.746Z,95607.72
2024-05-09T02:11:23.514Z,95614.22
2024-05-09T02:13:53.403Z,95613.78
2024-05-09T02:16:23.125Z,95608.56
2024-05-09T02:18:52.943Z,95612.78
2024-05-09T02:21:22.750Z,95605.69
2024-05-09T02:23:55.081Z,95604.94
2024-05-09T02:26:24.973Z,95606.97
2024-05-09T02:28:54.876Z,95616.84
2024-05-09T02:31:24.621Z,95610.84
2024-05-09T02:33:54.854Z,95609.66
2024-05-09T02:36:25.246Z,95600.25
2024-05-09T02:38:54.961Z,95588.63
2024-05-09T02:41:24.705Z,95599.06
2024-05-09T02:43:51.878Z,95590.66
2024-05-09T02:46:21.617Z,95595.44
2024-05-09T02:48:48.819Z,95598.56
2024-05-09T02:51:18.675Z,95605.84
2024-05-09T02:53:45.855Z,95596.69
2024-05-09T02:56:18.236Z,95605.94
2024-05-09T02:58:45.360Z,95597.03
2024-05-09T03:01:15.203Z,95608.66
2024-05-09T03:03:43.558Z,95597.03
2024-05-09T03:06:13.405Z,95597.47
2024-05-09T03:08:44.769Z,95596.25
2024-05-09T03:11:26.179Z,95601.69
2024-05-09T03:13:54.443Z,95596.59
2024-05-09T03:16:24.189Z,95596.59
2024-05-09T03:18:51.361Z,95594.63
2024-05-09T03:21:21.139Z,95603.53
2024-05-09T03:23:48.548Z,95602.03
2024-05-09T03:26:20.060Z,95600.06
2024-05-09T03:28:49.860Z,95599.25
2024-05-09T03:31:21.507Z,95604.38
2024-05-09T03:33:48.796Z,95598.69
2024-05-09T03:36:18.607Z,95605.16
2024-05-09T03:38:50.375Z,95604.13
2024-05-09T03:41:22.073Z,95616.72
2024-05-09T03:43:54.530Z,95605.03
2024-05-09T03:46:21.657Z,95605.72
2024-05-09T03:48:51.445Z,95613.38
2024-05-09T03:51:18.646Z,95612.53
2024-05-09T03:53:48.377Z,95611.78
2024-05-09T03:56:15.589Z,95613.38
2024-05-09T03:58:45.375Z,95612.59
2024-05-09T04:01:15.229Z,95616.59
2024-05-09T04:03:45.215Z,95615.75
2024-05-09T04:06:12.561Z,95616.53
2024-05-09T04:08:42.357Z,95627.03
2024-05-09T04:11:09.572Z,95620.22
2024-05-09T04:13:39.415Z,95610.13
2024-05-09T04:16:09.668Z,95617.75
2024-05-09T04:18:42.051Z,95630.22
2024-05-09T04:21:09.315Z,95635.06
2024-05-09T04:23:39.282Z,95631.50
2024-05-09T04:26:08.667Z,95630.69
2024-05-09T04:28:38.390Z,95635.06
2024-05-09T04:31:05.520Z,95632.25
2024-05-09T04:33:35.359Z,95639.66
2024-05-09T04:36:06.812Z,95635.03
2024-05-09T04:38:36.694Z,95643.91
2024-05-09T04:41:04.118Z,95639.97
2024-05-09T04:43:35.284Z,95647.25
2024-05-09T04:46:02.371Z,95642.56
2024-05-09T04:48:32.219Z,95643.09
2024-05-09T04:50:59.547Z,95642.25
2024-05-09T04:53:31.999Z,95636.63
2024-05-09T04:55:59.175Z,95646.66
2024-05-09T04:58:28.904Z,95639.03
2024-05-09T05:00:56.023Z,95636.63
2024-05-09T05:03:26.087Z,95640.88
2024-05-09T05:05:53.376Z,95642.31
2024-05-09T05:08:23.227Z,95646.78
2024-05-09T05:10:53.177Z,95649.56
2024-05-09T05:13:24.024Z,95639.91
2024-05-09T05:15:55.411Z,95643.88
2024-05-09T05:18:25.850Z,95645.09
2024-05-09T05:20:53.678Z,95650.53
2024-05-09T05:23:24.873Z,95649.88
2024-05-09T05:25:56.893Z,95657.13
2024-05-09T05:28:26.706Z,95656.88
2024-05-09T05:30:53.862Z,95657.88
2024-05-09T05:33:24.637Z,95662.25
2024-05-09T05:35:51.835Z,95657.34
2024-05-09T05:38:24.776Z,95661.66
2024-05-09T05:40:57.065Z,95659.91
2024-05-09T05:43:26.852Z,95666.72
2024-05-09T05:45:53.950Z,95650.41
2024-05-09T05:48:23.948Z,95661.47
2024-05-09T05:50:51.148Z,95657.19
2024-05-09T05:53:20.937Z,95664.34
2024-05-09T05:55:48.089Z,95660.09
2024-05-09T05:58:21.624Z,95663.44
2024-05-09T06:00:48.863Z,95662.56
2024-05-09T06:03:18.669Z,95665.31
2024-05-09T06:05:46.612Z,95660.41
2024-05-09T06:08:16.856Z,95660.78
2024-05-09T06:10:44.142Z,95657.03
2024-05-09T06:13:15.772Z,95666.69
2024-05-09T06:15:45.613Z,95664.94
2024-05-09T06:18:17.142Z,95666.63
2024-05-09T06:20:44.648Z,95666.78
2024-05-09T06:23:14.960Z,95672.03
2024-05-09T06:25:42.596Z,95674.06
2024-05-09T06:28:12.601Z,95670.75
2024-05-09T06:30:42.453Z,95682.38
2024-05-09T06:33:16.718Z,95681.41
2024-05-09T06:35:44.535Z,95680.25
2024-05-09T06:38:14.787Z,95679.28
2024-05-09T06:40:43.806Z,95669.91
2024-05-09T06:43:16.426Z,95676.31
2024-05-09T06:45:46.938Z,95675.16
2024-05-09T06:48:21.428Z,95676.66
2024-05-09T06:50:49.842Z,95672.53
2024-05-09T06:53:20.300Z,95667.56
2024-05-09T06:55:47.633Z,95676.88
2024-05-09T06:58:18.490Z,95671.41
2024-05-09T07:00:45.803Z,95666.06
2024-05-09T07:03:18.351Z,95662.44
2024-05-09T07:05:49.904Z,95667.66
2024-05-09T07:08:20.039Z,95667.06
2024-05-09T07:10:47.455Z,95665.31
2024-05-09T07:13:17.928Z,95670.34
2024-05-09T07:15:45.255Z,95658.63
2024-05-09T07:18:20.042Z,95657.63
2024-05-09T07:20:51.043Z,95659.47
2024-05-09T07:23:21.361Z,95656.50
2024-05-09T07:25:48.673Z,95659.13
2024-05-09T07:28:19.769Z,95652.84
2024-05-09T07:30:47.419Z,95656.72
2024-05-09T07:33:22.611Z,95659.78
2024-05-09T07:35:53.657Z,95656.16
2024-05-09T07:38:24.141Z,95657.97
2024-05-09T07:40:51.490Z,95667.44
2024-05-09T07:43:21.238Z,95664.38
2024-05-09T07:45:53.381Z,95667.00
2024-05-09T07:53:40.482Z,95666.19
2024-05-09T07:56:12.427Z,95653.97
2024-05-09T07:58:42.518Z,95656.22
2024-05-09T08:01:09.826Z,95660.22
2024-05-09T08:03:41.050Z,95665.19
2024-05-09T08:06:10.888Z,95654.44
2024-05-09T08:08:40.652Z,95653.53
2024-05-09T08:11:07.777Z,95653.09
2024-05-09T08:13:37.566Z,95651.72
2024-05-09T08:16:05.445Z,95653.56
2024-05-09T08:18:35.727Z,95651.28
2024-05-09T08:21:03.024Z,95651.97
2024-05-09T08:23:36.354Z,95646.00
2024-05-09T08:26:03.595Z,95641.91
2024-05-09T08:28:33.351Z,95643.75
2024-05-09T08:31:03.169Z,95637.56
2024-05-09T08:33:35.382Z,95637.97
2024-05-09T08:36:02.870Z,95647.69
2024-05-09T08:38:35.286Z,95642.75
2024-05-09T08:41:04.392Z,95652.75
2024-05-09T08:43:34.105Z,95647.59
2024-05-09T08:46:04.315Z,95642.13
2024-05-09T08:48:37.172Z,95635.28
2024-05-09T08:51:05.945Z,95638.00
2024-05-09T08:53:38.306Z,95628.44
2024-05-09T08:56:09.554Z,95635.25
2024-05-09T08:58:39.729Z,95629.03
2024-05-09T09:01:07.708Z,95632.50
2024-05-09T09:03:39.698Z,95633.00
2024-05-09T09:06:11.686Z,95638.34
2024-05-09T09:08:44.122Z,95629.13
2024-05-09T09:11:11.317Z,95636.19
2024-05-09T09:13:41.330Z,95629.69
2024-05-09T09:16:08.640Z,95633.13
2024-05-09T09:18:38.891Z,95633.44
2024-05-09T09:21:10.261Z,95646.47
2024-05-09T09:23:41.589Z,95634.78
2024-05-09T09:26:15.951Z,95630.44
2024-05-09T09:28:45.733Z,95630.91
2024-05-09T09:31:13.099Z,95628.13
2024-05-09T09:33:44.961Z,95631.03
2024-05-09T09:36:14.272Z,95637.50
2024-05-09T09:38:44.221Z,95632.88
2024-05-09T09:41:17.813Z,95626.38
2024-05-09T09:43:48.038Z,95628.19
2024-05-09T09:46:16.229Z,95628.19
2024-05-09T09:48:47.349Z,95632.09
2024-05-09T09:51:15.905Z,95632.34
2024-05-09T09:53:47.189Z,95622.53
2024-05-09T09:56:18.644Z,95614.41
2024-05-09T09:58:49.401Z,95619.38
2024-05-09T10:01:16.709Z,95614.25
2024-05-09T10:03:46.917Z,95620.50
2024-05-09T10:06:15.515Z,95622.22
2024-05-09T10:08:45.831Z,95608.88
2024-05-09T10:11:13.197Z,95616.34
2024-05-09T10:13:47.052Z,95609.00
2024-05-09T10:16:21.249Z,95605.94
2024-05-09T10:18:51.337Z,95610.41
2024-05-09T10:21:19.716Z,95599.03
2024-05-09T10:23:59.999Z,95602.91
2024-05-09T10:26:34.014Z,95605.13
2024-05-09T10:29:13.701Z,95610.56
2024-05-09T10:31:42.034Z,95605.94
2024-05-09T10:34:20.054Z,95604.03
2024-05-09T10:36:52.556Z,95596.19
2024-05-09T10:39:23.495Z,95596.81
2024-05-09T10:41:50.635Z,95588.63
2024-05-09T10:44:24.288Z,95584.47
2024-05-09T10:46:54.627Z,95590.69
2024-05-09T10:49:24.814Z,95597.25
2024-05-09T10:51:52.910Z,95586.91
2024-05-09T10:54:22.754Z,95587.63
2024-05-09T10:56:56.422Z,95580.28
2024-05-09T10:59:35.913Z,95589.44
2024-05-09T11:02:05.031Z,95582.22
2024-05-09T11:04:36.497Z,95585.44
2024-05-09T11:07:07.674Z,95585.34
2024-05-09T11:09:38.377Z,95574.00
2024-05-09T11:12:06.119Z,95572.59
2024-05-09T11:14:38.841Z,95576.41
2024-05-09T11:17:07.261Z,95566.41
2024-05-09T11:19:40.224Z,95574.19
2024-05-09T11:22:07.623Z,95560.88
2024-05-09T11:24:37.915Z,95566.38
2024-05-09T11:27:06.170Z,95560.47
2024-05-09T11:29:47.365Z,95556.94
2024-05-09T11:32:16.626Z,95561.72
2024-05-09T11:34:46.406Z,95561.16
2024-05-09T11:37:14.079Z,95548.00
2024-05-09T11:39:44.017Z,95550.75
2024-05-09T11:42:14.292Z,95542.94
2024-05-09T11:44:44.047Z,95541.91
2024-05-09T11:47:13.849Z,95546.19
2024-05-09T11:49:41.023Z,95544.72
2024-05-09T11:52:10.911Z,95541.56
2024-05-09T11:54:38.224Z,95537.84
2024-05-09T11:57:09.569Z,95534.75
2024-05-09T11:59:36.699Z,95539.03
2024-05-09T12:02:09.948Z,95545.34
2024-05-09T12:04:37.277Z,95534.66
2024-05-09T12:07:09.777Z,95529.97
2024-05-09T12:09:38.598Z,95541.13
2024-05-09T12:12:08.974Z,95530.63
2024-05-09T12:14:36.347Z,95526.94
2024-05-09T12:17:08.792Z,95527.91
2024-05-09T12:19:36.937Z,95535.59
2024-05-09T12:22:07.398Z,95516.38
2024-05-09T12:24:34.651Z,95512.69
2024-05-09T12:27:04.480Z,95517.50
2024-05-09T12:29:31.594Z,95515.91
2024-05-09T12:32:01.399Z,95518.03
2024-05-09T12:34:31.194Z,95523.31
2024-05-09T12:37:01.225Z,95505.81
2024-05-09T12:39:28.396Z,95497.38
2024-05-09T12:41:58.219Z,95512.22
2024-05-09T12:44:25.305Z,95500.59
2024-05-09T12:46:55.049Z,95499.06
2024-05-09T12:49:24.407Z,95496.94
2024-05-09T12:51:56.885Z,95494.84
2024-05-09T12:54:24.144Z,95495.13
2024-05-09T12:56:54.170Z,95497.00
2024-05-09T12:59:21.256Z,95501.22
2024-05-09T13:01:51.078Z,95484.00
2024-05-09T13:04:18.551Z,95488.00
2024-05-09T13:06:48.634Z,95489.56
2024-05-09T13:09:18.558Z,95492.72
2024-05-09T13:11:48.365Z,95485.84
2024-05-09T13:14:15.516Z,95489.00
2024-05-09T13:16:45.427Z,95495.38
2024-05-09T13:19:12.657Z,95484.00
2024-05-09T13:21:42.432Z,95491.16
2024-05-09T13:24:09.594Z,95477.13
2024-05-09T13:26:41.998Z,95490.06
2024-05-09T13:29:09.215Z,95478.94
2024-05-09T13:31:39.216Z,95499.28
2024-05-09T13:34:06.482Z,95479.16
2024-05-09T13:36:36.458Z,95470.84
2024-05-09T13:39:03.987Z,95463.34
2024-05-09T13:41:33.660Z,95466.44
2024-05-09T13:44:03.820Z,95462.72
2024-05-09T13:46:33.626Z,95459.00
2024-05-09T13:49:00.876Z,95464.25
2024-05-09T13:51:30.722Z,95451.03
2024-05-09T13:54:00.808Z,95453.06
2024-05-09T13:56:27.897Z,95465.75
2024-05-09T13:58:57.657Z,95452.59
2024-05-09T14:01:27.903Z,95458.34
2024-05-09T14:03:57.766Z,95456.63
2024-05-09T14:06:25.097Z,95452.00
2024-05-09T14:08:54.907Z,95445.28
2024-05-09T14:11:22.151Z,95452.69
2024-05-09T14:13:51.854Z,95437.38
2024-05-09T14:16:19.037Z,95438.34
2024-05-09T14:18:51.795Z,95440.38
2024-05-09T14:21:18.952Z,95441.69
2024-05-09T14:23:48.663Z,95440.38
2024-05-09T14:26:16.002Z,95433.47
2024-05-09T14:28:45.810Z,95441.25
2024-05-09T14:31:13.078Z,95443.06
2024-05-09T14:33:43.011Z,95436.13
2024-05-09T14:36:13.050Z,95428.28
2024-05-09T14:38:42.972Z,95428.75
2024-05-09T14:41:13.127Z,95436.81
2024-05-09T14:43:43.059Z,95437.94
2024-05-09T14:46:10.407Z,95429.13
2024-05-09T14:48:41.000Z,95430.94
2024-05-09T14:51:08.405Z,95424.31
2024-05-09T14:53:40.767Z,95422.81
2024-05-09T14:56:08.201Z,95430.03
2024-05-09T14:58:38.036Z,95415.09
2024-05-09T15:01:05.501Z,95426.13
2024-05-09T15:03:35.467Z,95423.91
2024-05-09T15:06:02.786Z,95418.94
2024-05-09T15:08:32.662Z,95426.47
2024-05-09T15:11:02.515Z,95416.28
2024-05-09T15:13:32.342Z,95419.72
2024-05-09T15:15:59.632Z,95420.31
2024-05-09T15:18:29.650Z,95417.88
2024-05-09T15:20:56.961Z,95416.22
2024-05-09T15:23:26.732Z,95417.66
2024-05-09T15:25:53.866Z,95419.81
2024-05-09T15:28:26.444Z,95416.00
2024-05-09T15:30:53.806Z,95411.34
2024-05-09T15:33:23.626Z,95418.97
2024-05-09T15:35:51.571Z,95414.13
2024-05-09T15:38:21.939Z,95414.25
2024-05-09T15:40:49.084Z,95414.13
2024-05-09T15:43:18.928Z,95413.25
2024-05-09T15:45:51.514Z,95410.53
2024-05-09T15:48:19.370Z,95411.97
2024-05-09T15:50:49.254Z,95409.94
2024-05-09T15:53:16.404Z,95418.03
2024-05-09T15:55:46.136Z,95412.81
2024-05-09T15:58:13.937Z,95423.59
2024-05-09T16:00:46.281Z,95411.31
2024-05-09T16:03:17.954Z,95409.78
2024-05-09T16:05:48.305Z,95411.66
2024-05-09T16:08:16.270Z,95412.69
2024-05-09T16:10:47.030Z,95410.38
2024-05-09T16:13:15.603Z,95409.94
2024-05-09T16:15:46.406Z,95409.88
2024-05-09T16:18:13.753Z,95409.53
2024-05-09T16:20:49.231Z,95402.03
2024-05-09T16:23:17.642Z,95405.78
2024-05-09T16:25:48.377Z,95400.19
2024-05-09T16:28:16.730Z,95394.13
2024-05-09T16:30:46.552Z,95401.56
2024-05-09T16:33:13.930Z,95394.28
2024-05-09T16:35:46.420Z,95395.78
2024-05-09T16:38:13.735Z,95402.47
2024-05-09T16:40:43.527Z,95401.94
2024-05-09T16:43:11.919Z,95397.28
2024-05-09T16:45:43.956Z,95395.31
2024-05-09T16:48:12.363Z,95396.13
2024-05-09T16:50:42.234Z,95398.66
2024-05-09T16:53:14.820Z,95399.84
2024-05-09T16:55:41.918Z,95405.19
2024-05-09T16:58:12.567Z,95397.88
2024-05-09T17:00:43.250Z,95403.03
2024-05-09T17:03:16.156Z,95399.03
2024-05-09T17:05:45.717Z,95398.84
2024-05-09T17:08:19.954Z,95398.13
2024-05-09T17:10:49.014Z,95400.97
2024-05-09T17:13:19.989Z,95406.25
2024-05-09T17:15:48.075Z,95403.59
2024-05-09T17:18:18.161Z,95401.47
2024-05-09T17:20:45.344Z,95410.38
2024-05-09T17:23:15.397Z,95399.09
2024-05-09T17:25:45.230Z,95407.34
2024-05-09T17:28:15.245Z,95413.25
2024-05-09T17:30:43.099Z,95416.63
2024-05-09T17:33:13.694Z,95410.19
2024-05-09T17:35:41.203Z,95404.63
2024-05-09T17:38:11.318Z,95404.22
2024-05-09T17:40:39.295Z,95409.59
2024-05-09T17:43:12.898Z,95409.56
2024-05-09T17:45:41.155Z,95417.72
2024-05-09T17:48:12.626Z,95411.84
2024-05-09T17:50:40.994Z,95407.94
2024-05-09T17:53:11.778Z,95410.09
2024-05-09T17:55:39.804Z,95410.09
2024-05-09T17:58:12.856Z,95417.28
2024-05-09T18:00:42.312Z,95415.09
2024-05-09T18:03:14.404Z,95412.34
2024-05-09T18:05:43.155Z,95415.03
2024-05-09T18:08:14.176Z,95420.78
2024-05-09T18:10:41.960Z,95422.44
2024-05-09T18:13:15.367Z,95420.41
2024-05-09T18:15:42.703Z,95427.03
2024-05-09T18:18:12.784Z,95425.31
2024-05-09T18:20:44.406Z,95426.34
2024-05-09T18:23:18.099Z,95423.34
2024-05-09T18:25:46.409Z,95426.09
2024-05-09T18:28:19.290Z,95422.94
2024-05-09T18:30:46.674Z,95419.50
2024-05-09T18:33:16.920Z,95410.69
2024-05-09T18:35:44.944Z,95419.63
2024-05-09T18:38:14.851Z,95411.09
2024-05-09T18:40:44.763Z,95415.84
2024-05-09T18:43:26.188Z,95414.53
2024-05-09T18:45:58.676Z,95412.94
2024-05-09T18:48:28.594Z,95414.75
2024-05-09T18:50:55.878Z,95414.69
2024-05-09T18:53:25.582Z,95411.28
2024-05-09T18:55:53.103Z,95404.50
2024-05-09T18:58:25.474Z,95415.47
2024-05-09T19:00:54.986Z,95414.91
2024-05-09T19:03:25.974Z,95415.47
2024-05-09T19:05:53.471Z,95423.41
2024-05-09T19:08:23.206Z,95427.63
2024-05-09T19:10:52.581Z,95425.53
2024-05-09T19:13:25.387Z,95427.16
2024-05-09T19:15:52.752Z,95414.44
2024-05-09T19:18:22.544Z,95420.25
2024-05-09T19:20:49.735Z,95418.63
2024-05-09T19:23:19.511Z,95419.69
2024-05-09T19:25:46.610Z,95431.31
2024-05-09T19:28:16.683Z,95436.09
2024-05-09T19:30:46.648Z,95422.88
2024-05-09T19:33:16.493Z,95438.19
2024-05-09T19:35:43.895Z,95439.75
2024-05-09T19:38:14.115Z,95451.88
2024-05-09T19:40:41.873Z,95452.91
2024-05-09T19:43:12.076Z,95456.06
2024-05-09T19:45:39.514Z,95463.97
2024-05-09T19:48:12.396Z,95462.31
2024-05-09T19:50:43.465Z,95464.56
2024-05-09T19:53:15.065Z,95472.03
2024-05-09T19:55:42.756Z,95469.31
2024-05-09T19:58:13.383Z,95475.19
2024-05-09T20:00:42.976Z,95475.19
2024-05-09T20:03:17.237Z,95483.09
2024-05-09T20:05:46.765Z,95474.13
2024-05-09T20:08:17.094Z,95475.25
2024-05-09T20:10:44.385Z,95477.38
2024-05-09T20:13:14.435Z,95478.97
2024-05-09T20:15:41.738Z,95480.56
2024-05-09T20:18:11.657Z,95478.41
2024-05-09T20:20:43.864Z,95484.47
2024-05-09T20:23:15.969Z,95487.84
2024-05-09T20:25:43.138Z,95483.09
2024-05-09T20:28:12.979Z,95485.97
2024-05-09T20:30:40.296Z,95495.72
2024-05-09T20:33:10.552Z,95491.00
2024-05-09T20:35:37.987Z,95497.84
2024-05-09T20:38:10.735Z,95491.47
2024-05-09T20:40:39.415Z,95497.81
2024-05-09T20:43:11.094Z,95494.09
2024-05-09T20:45:39.032Z,95492.50
2024-05-09T20:48:10.850Z,95487.69
2024-05-09T20:50:41.214Z,95491.38
2024-05-09T20:53:15.668Z,95493.41
2024-05-09T20:55:44.089Z,95489.19
2024-05-09T20:58:14.642Z,95499.78
2024-05-09T21:00:44.672Z,95494.50
2024-05-09T21:03:17.420Z,95492.03
2024-05-09T21:05:45.367Z,95492.75
2024-05-09T21:08:17.918Z,95494.69
2024-05-09T21:10:45.098Z,95487.97
2024-05-09T21:13:15.148Z,95493.25
2024-05-09T21:15:42.559Z,95491.94
2024-05-09T21:18:12.462Z,95492.75
2024-05-09T21:20:39.577Z,95487.75
2024-05-09T21:23:09.353Z,95490.66
2024-05-09T21:25:39.070Z,95487.47
2024-05-09T21:28:09.221Z,95494.69
2024-05-09T21:30:41.780Z,95493.59
2024-05-09T21:33:14.536Z,95494.63
2024-05-09T21:35:42.996Z,95494.63
2024-05-09T21:38:13.804Z,95490.94
2024-05-09T21:40:44.478Z,95493.06
2024-05-09T21:43:15.046Z,95487.53
2024-05-09T21:45:42.536Z,95481.69
2024-05-09T21:48:15.398Z,95487.13
2024-05-09T21:50:42.931Z,95491.94
2024-05-09T21:53:13.736Z,95481.41
2024-05-09T21:55:44.387Z,95486.09
2024-05-09T21:58:15.074Z,95485.53
2024-05-09T22:00:45.289Z,95489.22
2024-05-09T22:03:15.551Z,95486.84
2024-05-09T22:05:44.752Z,95492.03
2024-05-09T22:08:15.266Z,95495.28
2024-05-09T22:10:45.164Z,95498.16
2024-05-09T22:13:16.837Z,95492.59
2024-05-09T22:15:47.023Z,95495.97
2024-05-09T22:18:14.409Z,95491.97
2024-05-09T22:20:46.332Z,95491.97
2024-05-09T22:23:15.107Z,95491.38
2024-05-09T22:25:48.219Z,95483.41
2024-05-09T22:28:15.959Z,95492.34
2024-05-09T22:30:47.329Z,95491.56
2024-05-09T22:33:15.288Z,95492.31
2024-05-09T22:35:45.423Z,95488.06
2024-05-09T22:38:12.687Z,95488.06
2024-05-09T22:40:47.797Z,95494.31
2024-05-09T22:43:21.596Z,95487.31
2024-05-09T22:45:54.385Z,95493.09
2024-05-09T22:48:22.109Z,95494.00
2024-05-09T22:50:52.020Z,95500.56
2024-05-09T22:53:19.342Z,95492.47
2024-05-09T22:55:49.035Z,95503.00
2024-05-09T22:58:16.272Z,95498.19
2024-05-09T23:00:48.815Z,95509.69
2024-05-09T23:03:16.784Z,95500.13
2024-05-09T23:05:47.445Z,95497.25
2024-05-09T23:08:14.672Z,95503.16
2024-05-09T23:10:44.595Z,95495.91
2024-05-09T23:13:11.793Z,95500.69
2024-05-09T23:15:41.583Z,95501.72
2024-05-09T23:18:11.469Z,95498.53
2024-05-09T23:20:41.239Z,95506.34
2024-05-09T23:23:10.252Z,95497.44
2024-05-09T23:25:41.791Z,95495.91
2024-05-09T23:28:09.493Z,95504.13
2024-05-09T23:30:40.987Z,95500.75
2024-05-09T23:33:13.711Z,95499.66
2024-05-09T23:35:44.967Z,95500.28
2024-05-09T23:38:12.437Z,95495.50
2024-05-09T23:40:43.115Z,95488.16
2024-05-09T23:43:12.229Z,95503.63
2024-05-09T23:45:42.938Z,95499.97
2024-05-09T23:48:12.998Z,95495.97
2024-05-09T23:50:42.847Z,95494.25
2024-05-09T23:53:10.734Z,95491.34
2024-05-09T23:55:41.113Z,95495.00
2024-05-09T23:58:08.690Z,95495.00
